sensor_id;sensor_type;location;lat;lon;timestamp;pressure;altitude;pressure_sealevel;temperature;humidity
21658;BME280;10990;48.174;9.782;2023-01-15T00:00:57;93793.75;;;8.80;100.00
21658;BME280;10990;48.174;9.782;2023-01-15T00:03:24;93821.72;;;8.81;100.00
21658;BME280;10990;48.174;9.782;2023-01-15T00:05:51;93834.28;;;8.79;100.00
21658;BME280;10990;48.174;9.782;2023-01-15T00:08:18;93864.00;;;8.87;100.00
21658;BME280;10990;48.174;9.782;2023-01-15T00:10:46;93888.72;;;8.86;100.00
21658;BME280;10990;48.174;9.782;2023-01-15T00:13:13;93917.25;;;8.83;100.00
21658;BME280;10990;48.174;9.782;2023-01-15T00:15:40;93925.69;;;8.78;100.00
21658;BME280;10990;48.174;9.782;2023-01-15T00:18:06;93938.72;;;8.80;100.00
21658;BME280;10990;48.174;9.782;2023-01-15T00:20:33;93953.06;;;8.77;100.00
21658;BME280;10990;48.174;9.782;2023-01-15T00:23:00;93990.41;;;8.81;100.00
21658;BME280;10990;48.174;9.782;2023-01-15T00:25:26;94014.25;;;8.87;100.00
21658;BME280;10990;48.174;9.782;2023-01-15T00:28:13;94016.41;;;8.84;100.00
21658;BME280;10990;48.174;9.782;2023-01-15T00:30:40;94056.53;;;8.94;100.00
21658;BME280;10990;48.174;9.782;2023-01-15T00:33:07;94064.72;;;8.84;100.00
21658;BME280;10990;48.174;9.782;2023-01-15T00:35:34;94069.63;;;8.87;100.00
21658;BME280;10990;48.174;9.782;2023-01-15T00:38:01;94074.72;;;8.89;100.00
21658;BME280;10990;48.174;9.782;2023-01-15T00:40:29;94089.44;;;8.98;100.00
21658;BME280;10990;48.174;9.782;2023-01-15T00:42:55;94097.72;;;8.95;100.00
21658;BME280;10990;48.174;9.782;2023-01-15T00:45:23;94094.28;;;9.09;100.00
21658;BME280;10990;48.174;9.782;2023-01-15T00:47:50;94086.81;;;8.98;100.00
21658;BME280;10990;48.174;9.782;2023-01-15T00:50:17;94076.75;;;9.02;100.00
21658;BME280;10990;48.174;9.782;2023-01-15T00:52:44;94067.81;;;9.03;100.00
21658;BME280;10990;48.174;9.782;2023-01-15T00:55:10;94059.38;;;9.07;100.00
21658;BME280;10990;48.174;9.782;2023-01-15T00:57:37;94058.56;;;9.07;100.00
21658;BME280;10990;48.174;9.782;2023-01-15T01:00:05;94053.19;;;9.15;100.00
21658;BME280;10990;48.174;9.782;2023-01-15T01:02:34;94047.91;;;9.15;100.00
21658;BME280;10990;48.174;9.782;2023-01-15T01:05:00;94055.22;;;9.13;100.00
21658;BME280;10990;48.174;9.782;2023-01-15T01:07:28;94032.09;;;9.15;100.00
21658;BME280;10990;48.174;9.782;2023-01-15T01:09:55;94032.84;;;9.24;100.00
21658;BME280;10990;48.174;9.782;2023-01-15T01:12:22;94024.81;;;9.17;100.00
21658;BME280;10990;48.174;9.782;2023-01-15T01:14:48;94018.56;;;9.18;100.00
21658;BME280;10990;48.174;9.782;2023-01-15T01:17:15;94010.66;;;9.18;100.00
21658;BME280;10990;48.174;9.782;2023-01-15T01:19:43;94006.28;;;9.25;100.00
21658;BME280;10990;48.174;9.782;2023-01-15T01:22:10;94005.38;;;9.33;100.00
21658;BME280;10990;48.174;9.782;2023-01-15T01:24:37;94008.66;;;9.35;100.00
21658;BME280;10990;48.174;9.782;2023-01-15T01:27:05;93999.72;;;9.36;100.00
21658;BME280;10990;48.174;9.782;2023-01-15T01:29:32;94014.53;;;9.37;100.00
21658;BME280;10990;48.174;9.782;2023-01-15T01:31:59;93998.09;;;9.35;100.00
21658;BME280;10990;48.174;9.782;2023-01-15T01:34:25;93991.28;;;9.40;100.00
21658;BME280;10990;48.174;9.782;2023-01-15T01:36:54;93997.00;;;9.44;100.00
21658;BME280;10990;48.174;9.782;2023-01-15T01:39:20;93989.44;;;9.41;100.00
21658;BME280;10990;48.174;9.782;2023-01-15T01:41:47;93996.63;;;9.47;100.00
21658;BME280;10990;48.174;9.782;2023-01-15T01:47:20;93947.97;;;9.35;100.00
21658;BME280;10990;48.174;9.782;2023-01-15T01:49:51;93909.31;;;9.27;100.00
21658;BME280;10990;48.174;9.782;2023-01-15T01:52:24;93869.56;;;9.29;100.00
21658;BME280;10990;48.174;9.782;2023-01-15T01:54:52;93853.13;;;9.27;100.00
21658;BME280;10990;48.174;9.782;2023-01-15T01:57:20;93834.81;;;9.25;100.00
21658;BME280;10990;48.174;9.782;2023-01-15T01:59:48;93803.97;;;9.26;100.00
21658;BME280;10990;48.174;9.782;2023-01-15T02:02:16;93773.09;;;9.19;100.00
21658;BME280;10990;48.174;9.782;2023-01-15T02:04:45;93723.69;;;9.07;100.00
21658;BME280;10990;48.174;9.782;2023-01-15T02:07:13;93699.19;;;9.13;100.00
21658;BME280;10990;48.174;9.782;2023-01-15T02:09:41;93673.94;;;9.04;100.00
21658;BME280;10990;48.174;9.782;2023-01-15T02:12:11;93646.97;;;9.02;100.00
21658;BME280;10990;48.174;9.782;2023-01-15T02:14:44;93645.00;;;9.10;100.00
21658;BME280;10990;48.174;9.782;2023-01-15T02:17:15;93648.03;;;9.07;100.00
21658;BME280;10990;48.174;9.782;2023-01-15T02:19:51;93636.66;;;9.07;100.00
21658;BME280;10990;48.174;9.782;2023-01-15T02:22:29;93653.56;;;9.12;100.00
21658;BME280;10990;48.174;9.782;2023-01-15T02:25:05;93655.56;;;9.10;100.00
21658;BME280;10990;48.174;9.782;2023-01-15T02:27:41;93648.28;;;9.12;100.00
21658;BME280;10990;48.174;9.782;2023-01-15T02:30:14;93649.75;;;9.22;100.00
21658;BME280;10990;48.174;9.782;2023-01-15T02:32:56;93657.94;;;9.27;100.00
21658;BME280;10990;48.174;9.782;2023-01-15T02:35:29;93674.56;;;9.27;100.00
21658;BME280;10990;48.174;9.782;2023-01-15T02:38:04;93670.91;;;9.28;100.00
21658;BME280;10990;48.174;9.782;2023-01-15T02:40:34;93664.81;;;9.28;100.00
21658;BME280;10990;48.174;9.782;2023-01-15T02:43:04;93668.22;;;9.22;100.00
21658;BME280;10990;48.174;9.782;2023-01-15T02:45:35;93637.72;;;9.12;100.00
21658;BME280;10990;48.174;9.782;2023-01-15T02:48:11;93658.25;;;9.17;100.00
21658;BME280;10990;48.174;9.782;2023-01-15T02:50:42;93648.50;;;9.17;100.00
21658;BME280;10990;48.174;9.782;2023-01-15T02:53:13;93654.38;;;9.13;100.00
21658;BME280;10990;48.174;9.782;2023-01-15T02:55:46;93649.84;;;9.07;100.00
21658;BME280;10990;48.174;9.782;2023-01-15T02:58:22;93648.28;;;9.12;100.00
21658;BME280;10990;48.174;9.782;2023-01-15T03:00:52;93638.84;;;9.03;100.00
21658;BME280;10990;48.174;9.782;2023-01-15T03:03:24;93632.75;;;9.03;100.00
21658;BME280;10990;48.174;9.782;2023-01-15T03:05:59;93635.41;;;9.03;100.00
21658;BME280;10990;48.174;9.782;2023-01-15T03:08:27;93643.13;;;9.04;100.00
21658;BME280;10990;48.174;9.782;2023-01-15T03:11:01;93637.41;;;9.01;100.00
21658;BME280;10990;48.174;9.782;2023-01-15T03:13:38;93631.69;;;8.97;100.00
21658;BME280;10990;48.174;9.782;2023-01-15T03:16:14;93618.72;;;8.95;100.00
21658;BME280;10990;48.174;9.782;2023-01-15T03:19:08;93601.91;;;8.96;100.00
21658;BME280;10990;48.174;9.782;2023-01-15T03:21:45;93571.59;;;9.14;100.00
21658;BME280;10990;48.174;9.782;2023-01-15T03:24:18;93551.53;;;9.13;100.00
21658;BME280;10990;48.174;9.782;2023-01-15T03:26:47;93546.81;;;9.08;100.00
21658;BME280;10990;48.174;9.782;2023-01-15T03:29:16;93556.94;;;9.05;100.00
21658;BME280;10990;48.174;9.782;2023-01-15T03:31:42;93536.25;;;9.08;100.00
21658;BME280;10990;48.174;9.782;2023-01-15T03:34:10;93535.19;;;8.96;100.00
21658;BME280;10990;48.174;9.782;2023-01-15T03:36:41;93522.59;;;8.98;100.00
21658;BME280;10990;48.174;9.782;2023-01-15T03:39:08;93520.81;;;8.98;100.00
21658;BME280;10990;48.174;9.782;2023-01-15T03:41:52;93511.44;;;8.96;100.00
21658;BME280;10990;48.174;9.782;2023-01-15T03:44:26;93514.47;;;8.93;100.00
21658;BME280;10990;48.174;9.782;2023-01-15T03:47:04;93496.41;;;8.90;100.00
21658;BME280;10990;48.174;9.782;2023-01-15T03:49:41;93501.63;;;8.83;100.00
21658;BME280;10990;48.174;9.782;2023-01-15T03:52:20;93480.50;;;8.77;100.00
21658;BME280;10990;48.174;9.782;2023-01-15T03:54:59;93476.06;;;8.84;100.00
21658;BME280;10990;48.174;9.782;2023-01-15T03:57:36;93456.38;;;8.80;100.00
21658;BME280;10990;48.174;9.782;2023-01-15T04:00:09;93441.81;;;8.84;100.00
21658;BME280;10990;48.174;9.782;2023-01-15T04:02:43;93426.00;;;8.84;100.00
21658;BME280;10990;48.174;9.782;2023-01-15T04:05:14;93419.72;;;8.85;100.00
21658;BME280;10990;48.174;9.782;2023-01-15T04:07:46;93404.16;;;8.90;100.00
21658;BME280;10990;48.174;9.782;2023-01-15T04:10:15;93386.91;;;8.87;100.00
21658;BME280;10990;48.174;9.782;2023-01-15T04:12:42;93336.81;;;8.87;100.00
21658;BME280;10990;48.174;9.782;2023-01-15T04:15:11;93313.91;;;8.88;100.00
21658;BME280;10990;48.174;9.782;2023-01-15T04:17:38;93301.53;;;8.82;100.00
21658;BME280;10990;48.174;9.782;2023-01-15T04:20:06;93274.56;;;8.86;100.00
21658;BME280;10990;48.174;9.782;2023-01-15T04:22:34;93260.97;;;8.89;100.00
21658;BME280;10990;48.174;9.782;2023-01-15T04:25:01;93260.59;;;8.92;100.00
21658;BME280;10990;48.174;9.782;2023-01-15T04:27:28;93252.66;;;8.92;100.00
21658;BME280;10990;48.174;9.782;2023-01-15T04:29:55;93235.25;;;8.91;100.00
21658;BME280;10990;48.174;9.782;2023-01-15T04:32:23;93235.88;;;8.93;100.00
21658;BME280;10990;48.174;9.782;2023-01-15T04:34:50;93224.69;;;8.98;100.00
21658;BME280;10990;48.174;9.782;2023-01-15T04:37:17;93198.34;;;8.98;100.00
21658;BME280;10990;48.174;9.782;2023-01-15T04:39:45;93204.22;;;8.93;100.00
21658;BME280;10990;48.174;9.782;2023-01-15T04:42:13;93194.31;;;9.02;100.00
21658;BME280;10990;48.174;9.782;2023-01-15T04:44:58;93168.56;;;9.04;100.00
21658;BME280;10990;48.174;9.782;2023-01-15T04:47:29;93140.34;;;8.98;100.00
21658;BME280;10990;48.174;9.782;2023-01-15T04:49:56;93133.69;;;8.95;100.00
21658;BME280;10990;48.174;9.782;2023-01-15T04:52:22;93100.63;;;8.93;100.00
21658;BME280;10990;48.174;9.782;2023-01-15T04:54:49;93097.19;;;8.99;100.00
21658;BME280;10990;48.174;9.782;2023-01-15T04:57:16;93106.50;;;8.95;100.00
21658;BME280;10990;48.174;9.782;2023-01-15T04:59:43;93084.19;;;8.97;100.00
21658;BME280;10990;48.174;9.782;2023-01-15T05:02:10;93071.41;;;8.94;100.00
21658;BME280;10990;48.174;9.782;2023-01-15T05:04:38;93060.66;;;9.09;100.00
21658;BME280;10990;48.174;9.782;2023-01-15T05:07:05;93056.63;;;9.07;100.00
21658;BME280;10990;48.174;9.782;2023-01-15T05:09:32;93044.25;;;9.07;100.00
21658;BME280;10990;48.174;9.782;2023-01-15T05:11:59;93021.72;;;9.11;100.00
21658;BME280;10990;48.174;9.782;2023-01-15T05:14:25;93029.25;;;9.08;100.00
21658;BME280;10990;48.174;9.782;2023-01-15T05:16:52;93014.84;;;9.10;100.00
21658;BME280;10990;48.174;9.782;2023-01-15T05:19:19;93021.31;;;9.21;100.00
21658;BME280;10990;48.174;9.782;2023-01-15T05:21:47;93020.47;;;9.20;100.00
21658;BME280;10990;48.174;9.782;2023-01-15T05:24:15;92998.34;;;9.28;100.00
21658;BME280;10990;48.174;9.782;2023-01-15T05:26:43;93000.00;;;9.29;100.00
21658;BME280;10990;48.174;9.782;2023-01-15T05:29:10;92990.81;;;9.45;100.00
21658;BME280;10990;48.174;9.782;2023-01-15T05:31:38;92999.28;;;9.54;100.00
21658;BME280;10990;48.174;9.782;2023-01-15T05:34:06;92997.88;;;9.58;100.00
21658;BME280;10990;48.174;9.782;2023-01-15T05:36:32;92992.19;;;9.61;100.00
21658;BME280;10990;48.174;9.782;2023-01-15T05:39:03;92994.59;;;9.62;100.00
21658;BME280;10990;48.174;9.782;2023-01-15T05:41:30;93001.28;;;9.65;100.00
21658;BME280;10990;48.174;9.782;2023-01-15T05:44:17;93017.53;;;9.62;100.00
21658;BME280;10990;48.174;9.782;2023-01-15T05:46:45;93005.13;;;9.69;100.00
21658;BME280;10990;48.174;9.782;2023-01-15T05:49:15;93019.75;;;9.65;100.00
21658;BME280;10990;48.174;9.782;2023-01-15T05:51:42;92993.56;;;9.70;100.00
21658;BME280;10990;48.174;9.782;2023-01-15T05:54:13;93019.53;;;9.73;100.00
21658;BME280;10990;48.174;9.782;2023-01-15T05:56:40;93033.31;;;9.75;100.00
21658;BME280;10990;48.174;9.782;2023-01-15T05:59:07;93024.94;;;9.85;100.00
21658;BME280;10990;48.174;9.782;2023-01-15T06:01:34;93033.47;;;9.87;100.00
21658;BME280;10990;48.174;9.782;2023-01-15T06:04:02;93027.16;;;9.88;100.00
21658;BME280;10990;48.174;9.782;2023-01-15T06:06:30;93053.97;;;9.85;100.00
21658;BME280;10990;48.174;9.782;2023-01-15T06:08:57;93036.91;;;9.87;100.00
21658;BME280;10990;48.174;9.782;2023-01-15T06:11:25;93032.88;;;9.85;100.00
21658;BME280;10990;48.174;9.782;2023-01-15T06:13:51;93035.34;;;9.80;100.00
21658;BME280;10990;48.174;9.782;2023-01-15T06:16:18;93027.19;;;9.81;100.00
21658;BME280;10990;48.174;9.782;2023-01-15T06:18:45;93024.59;;;9.75;100.00
21658;BME280;10990;48.174;9.782;2023-01-15T06:21:12;93007.78;;;9.69;100.00
21658;BME280;10990;48.174;9.782;2023-01-15T06:23:40;93013.44;;;9.73;100.00
21658;BME280;10990;48.174;9.782;2023-01-15T06:26:11;93015.03;;;9.74;100.00
21658;BME280;10990;48.174;9.782;2023-01-15T06:28:39;93015.88;;;9.68;100.00
21658;BME280;10990;48.174;9.782;2023-01-15T06:31:08;93011.63;;;9.67;100.00
21658;BME280;10990;48.174;9.782;2023-01-15T06:33:35;93010.41;;;9.62;100.00
21658;BME280;10990;48.174;9.782;2023-01-15T06:36:03;92991.94;;;9.62;100.00
21658;BME280;10990;48.174;9.782;2023-01-15T06:38:29;92986.28;;;9.59;100.00
21658;BME280;10990;48.174;9.782;2023-01-15T06:40:57;92993.41;;;9.58;100.00
21658;BME280;10990;48.174;9.782;2023-01-15T06:43:24;92984.28;;;9.54;100.00
21658;BME280;10990;48.174;9.782;2023-01-15T06:46:10;92976.78;;;9.51;100.00
21658;BME280;10990;48.174;9.782;2023-01-15T06:48:53;92981.88;;;9.46;100.00
21658;BME280;10990;48.174;9.782;2023-01-15T06:51:20;92971.91;;;9.48;100.00
21658;BME280;10990;48.174;9.782;2023-01-15T06:53:47;92969.94;;;9.43;100.00
21658;BME280;10990;48.174;9.782;2023-01-15T06:56:14;92964.47;;;9.38;100.00
21658;BME280;10990;48.174;9.782;2023-01-15T06:58:41;92937.91;;;9.33;100.00
21658;BME280;10990;48.174;9.782;2023-01-15T07:01:10;92940.72;;;9.32;100.00
21658;BME280;10990;48.174;9.782;2023-01-15T07:03:37;92924.31;;;9.30;100.00
21658;BME280;10990;48.174;9.782;2023-01-15T07:06:05;92924.56;;;9.22;100.00
21658;BME280;10990;48.174;9.782;2023-01-15T07:08:32;92912.59;;;9.19;100.00
21658;BME280;10990;48.174;9.782;2023-01-15T07:11:01;92902.09;;;9.12;100.00
21658;BME280;10990;48.174;9.782;2023-01-15T07:13:28;92870.03;;;9.09;100.00
21658;BME280;10990;48.174;9.782;2023-01-15T07:15:57;92851.81;;;9.07;100.00
21658;BME280;10990;48.174;9.782;2023-01-15T07:18:25;92837.00;;;9.06;100.00
21658;BME280;10990;48.174;9.782;2023-01-15T07:20:53;92838.81;;;9.12;100.00
21658;BME280;10990;48.174;9.782;2023-01-15T07:23:21;92816.50;;;9.08;100.00
21658;BME280;10990;48.174;9.782;2023-01-15T07:25:48;92807.00;;;9.07;100.00
21658;BME280;10990;48.174;9.782;2023-01-15T07:28:14;92792.34;;;9.11;100.00
21658;BME280;10990;48.174;9.782;2023-01-15T07:30:41;92799.28;;;9.06;100.00
21658;BME280;10990;48.174;9.782;2023-01-15T07:33:08;92783.28;;;9.07;100.00
21658;BME280;10990;48.174;9.782;2023-01-15T07:35:36;92766.66;;;9.07;100.00
21658;BME280;10990;48.174;9.782;2023-01-15T07:38:03;92746.19;;;9.02;100.00
21658;BME280;10990;48.174;9.782;2023-01-15T07:40:29;92733.63;;;8.97;100.00
21658;BME280;10990;48.174;9.782;2023-01-15T07:42:57;92694.94;;;8.91;100.00
21658;BME280;10990;48.174;9.782;2023-01-15T07:45:41;92657.88;;;8.86;100.00
21658;BME280;10990;48.174;9.782;2023-01-15T07:48:22;92617.53;;;8.86;100.00
21658;BME280;10990;48.174;9.782;2023-01-15T07:51:08;92618.16;;;8.88;100.00
21658;BME280;10990;48.174;9.782;2023-01-15T07:53:34;92598.31;;;8.85;100.00
21658;BME280;10990;48.174;9.782;2023-01-15T07:56:01;92584.50;;;8.90;100.00
21658;BME280;10990;48.174;9.782;2023-01-15T07:58:28;92568.81;;;8.95;100.00
21658;BME280;10990;48.174;9.782;2023-01-15T08:00:55;92570.28;;;8.91;100.00
21658;BME280;10990;48.174;9.782;2023-01-15T08:03:21;92574.31;;;8.93;100.00
21658;BME280;10990;48.174;9.782;2023-01-15T08:05:48;92567.41;;;8.92;100.00
21658;BME280;10990;48.174;9.782;2023-01-15T08:08:16;92563.78;;;8.93;100.00
21658;BME280;10990;48.174;9.782;2023-01-15T08:10:43;92569.84;;;8.94;100.00
21658;BME280;10990;48.174;9.782;2023-01-15T08:13:24;92567.22;;;8.94;100.00
21658;BME280;10990;48.174;9.782;2023-01-15T08:16:08;92557.53;;;8.88;100.00
21658;BME280;10990;48.174;9.782;2023-01-15T08:18:35;92534.81;;;8.87;100.00
21658;BME280;10990;48.174;9.782;2023-01-15T08:21:02;92526.78;;;8.82;100.00
21658;BME280;10990;48.174;9.782;2023-01-15T08:23:30;92509.59;;;8.79;100.00
21658;BME280;10990;48.174;9.782;2023-01-15T08:25:58;92496.44;;;8.72;100.00
21658;BME280;10990;48.174;9.782;2023-01-15T08:28:25;92480.63;;;8.72;100.00
21658;BME280;10990;48.174;9.782;2023-01-15T08:30:52;92447.06;;;8.68;100.00
21658;BME280;10990;48.174;9.782;2023-01-15T08:33:18;92444.28;;;8.63;100.00
21658;BME280;10990;48.174;9.782;2023-01-15T08:35:45;92425.03;;;8.62;100.00
21658;BME280;10990;48.174;9.782;2023-01-15T08:38:12;92398.03;;;8.67;100.00
21658;BME280;10990;48.174;9.782;2023-01-15T08:40:40;92400.28;;;8.63;100.00
21658;BME280;10990;48.174;9.782;2023-01-15T08:43:21;92396.06;;;8.62;100.00
21658;BME280;10990;48.174;9.782;2023-01-15T08:45:48;92431.44;;;8.48;100.00
21658;BME280;10990;48.174;9.782;2023-01-15T08:48:15;92513.53;;;7.61;100.00
21658;BME280;10990;48.174;9.782;2023-01-15T08:50:41;92522.00;;;7.18;100.00
21658;BME280;10990;48.174;9.782;2023-01-15T08:53:08;92502.84;;;6.91;100.00
21658;BME280;10990;48.174;9.782;2023-01-15T08:55:36;92481.63;;;6.93;100.00
21658;BME280;10990;48.174;9.782;2023-01-15T08:58:04;92487.94;;;6.79;100.00
21658;BME280;10990;48.174;9.782;2023-01-15T09:00:30;92456.59;;;6.77;100.00
21658;BME280;10990;48.174;9.782;2023-01-15T09:02:57;92462.28;;;6.67;100.00
21658;BME280;10990;48.174;9.782;2023-01-15T09:05:24;92433.56;;;6.79;100.00
21658;BME280;10990;48.174;9.782;2023-01-15T09:07:52;92420.44;;;6.79;100.00
21658;BME280;10990;48.174;9.782;2023-01-15T09:10:19;92415.19;;;6.72;100.00
21658;BME280;10990;48.174;9.782;2023-01-15T09:12:46;92399.97;;;6.94;100.00
21658;BME280;10990;48.174;9.782;2023-01-15T09:15:14;92396.50;;;7.01;100.00
21658;BME280;10990;48.174;9.782;2023-01-15T09:17:41;92384.22;;;7.01;100.00
21658;BME280;10990;48.174;9.782;2023-01-15T09:20:10;92360.31;;;7.09;100.00
21658;BME280;10990;48.174;9.782;2023-01-15T09:22:37;92399.63;;;6.84;100.00
21658;BME280;10990;48.174;9.782;2023-01-15T09:25:05;92391.94;;;6.83;100.00
21658;BME280;10990;48.174;9.782;2023-01-15T09:27:32;92391.34;;;6.81;100.00
21658;BME280;10990;48.174;9.782;2023-01-15T09:29:59;92394.13;;;6.92;100.00
21658;BME280;10990;48.174;9.782;2023-01-15T09:32:27;92365.25;;;6.86;100.00
21658;BME280;10990;48.174;9.782;2023-01-15T09:34:54;92383.69;;;6.72;100.00
21658;BME280;10990;48.174;9.782;2023-01-15T09:37:20;92373.81;;;6.68;100.00
21658;BME280;10990;48.174;9.782;2023-01-15T09:39:47;92353.66;;;6.62;100.00
21658;BME280;10990;48.174;9.782;2023-01-15T09:42:26;92344.28;;;6.79;100.00
21658;BME280;10990;48.174;9.782;2023-01-15T09:45:13;92312.44;;;7.01;100.00
21658;BME280;10990;48.174;9.782;2023-01-15T09:47:54;92344.28;;;6.79;100.00
21658;BME280;10990;48.174;9.782;2023-01-15T09:50:30;92357.66;;;6.71;100.00
21658;BME280;10990;48.174;9.782;2023-01-15T09:53:21;92340.59;;;6.87;100.00
21658;BME280;10990;48.174;9.782;2023-01-15T09:55:53;92352.16;;;6.72;100.00
21658;BME280;10990;48.174;9.782;2023-01-15T09:58:26;92335.38;;;6.80;100.00
21658;BME280;10990;48.174;9.782;2023-01-15T10:00:57;92338.22;;;6.79;100.00
21658;BME280;10990;48.174;9.782;2023-01-15T10:03:30;92347.94;;;6.71;100.00
21658;BME280;10990;48.174;9.782;2023-01-15T10:06:11;92324.44;;;6.90;100.00
21658;BME280;10990;48.174;9.782;2023-01-15T10:08:41;92316.19;;;6.80;100.00
21658;BME280;10990;48.174;9.782;2023-01-15T10:11:27;92288.06;;;6.87;100.00
21658;BME280;10990;48.174;9.782;2023-01-15T10:14:24;92294.22;;;6.74;100.00
21658;BME280;10990;48.174;9.782;2023-01-15T10:16:56;92308.94;;;6.75;100.00
21658;BME280;10990;48.174;9.782;2023-01-15T10:19:25;92320.03;;;6.77;100.00
21658;BME280;10990;48.174;9.782;2023-01-15T10:21:56;92335.06;;;6.57;100.00
21658;BME280;10990;48.174;9.782;2023-01-15T10:24:33;92311.78;;;6.73;100.00
21658;BME280;10990;48.174;9.782;2023-01-15T10:27:07;92319.19;;;6.83;100.00
21658;BME280;10990;48.174;9.782;2023-01-15T10:29:43;92353.22;;;6.58;100.00
21658;BME280;10990;48.174;9.782;2023-01-15T10:32:21;92354.03;;;6.65;100.00
21658;BME280;10990;48.174;9.782;2023-01-15T10:37:46;92382.75;;;6.54;100.00
21658;BME280;10990;48.174;9.782;2023-01-15T10:40:27;92376.84;;;6.58;100.00
21658;BME280;10990;48.174;9.782;2023-01-15T10:43:01;92378.84;;;6.69;100.00
21658;BME280;10990;48.174;9.782;2023-01-15T10:45:32;92361.88;;;6.72;100.00
21658;BME280;10990;48.174;9.782;2023-01-15T10:48:03;92346.41;;;7.02;100.00
21658;BME280;10990;48.174;9.782;2023-01-15T10:50:33;92376.94;;;6.96;100.00
21658;BME280;10990;48.174;9.782;2023-01-15T10:53:03;92415.81;;;6.68;100.00
21658;BME280;10990;48.174;9.782;2023-01-15T10:55:35;92443.91;;;6.61;100.00
21658;BME280;10990;48.174;9.782;2023-01-15T10:58:11;92462.09;;;6.62;100.00
21658;BME280;10990;48.174;9.782;2023-01-15T11:00:51;92469.94;;;6.69;100.00
21658;BME280;10990;48.174;9.782;2023-01-15T11:03:31;92509.94;;;6.64;100.00
21658;BME280;10990;48.174;9.782;2023-01-15T11:06:02;92546.69;;;6.64;100.00
21658;BME280;10990;48.174;9.782;2023-01-15T11:08:30;92598.41;;;6.50;100.00
21658;BME280;10990;48.174;9.782;2023-01-15T11:11:14;92611.31;;;6.59;100.00
21658;BME280;10990;48.174;9.782;2023-01-15T11:13:51;92654.16;;;6.66;100.00
21658;BME280;10990;48.174;9.782;2023-01-15T11:16:36;92724.22;;;6.59;100.00
21658;BME280;10990;48.174;9.782;2023-01-15T11:19:26;92802.06;;;6.32;100.00
21658;BME280;10990;48.174;9.782;2023-01-15T11:22:10;92831.91;;;6.31;100.00
21658;BME280;10990;48.174;9.782;2023-01-15T11:24:45;92873.69;;;6.25;100.00
21658;BME280;10990;48.174;9.782;2023-01-15T11:27:15;92895.69;;;6.24;100.00
21658;BME280;10990;48.174;9.782;2023-01-15T11:29:44;92896.13;;;6.28;100.00
21658;BME280;10990;48.174;9.782;2023-01-15T11:32:21;92928.44;;;6.28;100.00
21658;BME280;10990;48.174;9.782;2023-01-15T11:34:52;92965.94;;;6.22;100.00
21658;BME280;10990;48.174;9.782;2023-01-15T11:37:21;92983.66;;;6.20;100.00
21658;BME280;10990;48.174;9.782;2023-01-15T11:39:51;93021.47;;;6.04;100.00
21658;BME280;10990;48.174;9.782;2023-01-15T11:42:19;93050.25;;;5.98;100.00
21658;BME280;10990;48.174;9.782;2023-01-15T11:45:12;93060.03;;;5.89;100.00
21658;BME280;10990;48.174;9.782;2023-01-15T11:48:12;93091.88;;;5.71;100.00
21658;BME280;10990;48.174;9.782;2023-01-15T11:51:03;93076.50;;;5.68;100.00
21658;BME280;10990;48.174;9.782;2023-01-15T11:53:37;93081.69;;;5.61;100.00
21658;BME280;10990;48.174;9.782;2023-01-15T11:56:08;93091.53;;;5.59;100.00
21658;BME280;10990;48.174;9.782;2023-01-15T11:58:40;93105.00;;;5.56;100.00
21658;BME280;10990;48.174;9.782;2023-01-15T12:01:11;93096.13;;;5.57;100.00
21658;BME280;10990;48.174;9.782;2023-01-15T12:03:39;93108.91;;;5.46;100.00
21658;BME280;10990;48.174;9.782;2023-01-15T12:06:08;93108.09;;;5.45;100.00
21658;BME280;10990;48.174;9.782;2023-01-15T12:08:44;93107.28;;;5.45;100.00
21658;BME280;10990;48.174;9.782;2023-01-15T12:11:28;93108.44;;;5.42;100.00
21658;BME280;10990;48.174;9.782;2023-01-15T12:14:04;93121.56;;;5.42;100.00
21658;BME280;10990;48.174;9.782;2023-01-15T12:16:40;93105.66;;;5.44;100.00
21658;BME280;10990;48.174;9.782;2023-01-15T12:19:17;93109.81;;;5.53;100.00
21658;BME280;10990;48.174;9.782;2023-01-15T12:22:07;93097.53;;;5.38;100.00
21658;BME280;10990;48.174;9.782;2023-01-15T12:25:12;93080.06;;;5.46;100.00
21658;BME280;10990;48.174;9.782;2023-01-15T12:27:58;93094.72;;;5.25;100.00
21658;BME280;10990;48.174;9.782;2023-01-15T12:30:31;93083.78;;;5.36;100.00
21658;BME280;10990;48.174;9.782;2023-01-15T12:33:13;93074.22;;;5.44;100.00
21658;BME280;10990;48.174;9.782;2023-01-15T12:35:43;93069.97;;;5.28;100.00
21658;BME280;10990;48.174;9.782;2023-01-15T12:38:18;93067.16;;;5.29;100.00
21658;BME280;10990;48.174;9.782;2023-01-15T12:40:51;93061.91;;;5.29;100.00
21658;BME280;10990;48.174;9.782;2023-01-15T12:43:23;93064.44;;;5.23;100.00
21658;BME280;10990;48.174;9.782;2023-01-15T12:46:13;93065.63;;;5.05;100.00
21658;BME280;10990;48.174;9.782;2023-01-15T12:48:46;93080.31;;;4.91;100.00
21658;BME280;10990;48.174;9.782;2023-01-15T12:51:22;93063.88;;;4.83;100.00
21658;BME280;10990;48.174;9.782;2023-01-15T12:53:56;93082.69;;;4.48;100.00
21658;BME280;10990;48.174;9.782;2023-01-15T12:56:28;93061.59;;;4.65;100.00
21658;BME280;10990;48.174;9.782;2023-01-15T12:59:02;93060.28;;;4.46;100.00
21658;BME280;10990;48.174;9.782;2023-01-15T13:01:37;93073.50;;;4.30;100.00
21658;BME280;10990;48.174;9.782;2023-01-15T13:04:14;93065.06;;;4.19;100.00
21658;BME280;10990;48.174;9.782;2023-01-15T13:06:45;93070.09;;;4.06;100.00
21658;BME280;10990;48.174;9.782;2023-01-15T13:09:18;93055.66;;;4.10;100.00
21658;BME280;10990;48.174;9.782;2023-01-15T13:11:50;93042.22;;;4.13;100.00
21658;BME280;10990;48.174;9.782;2023-01-15T13:14:18;93033.06;;;4.17;100.00
21658;BME280;10990;48.174;9.782;2023-01-15T13:16:51;93037.81;;;4.14;100.00
21658;BME280;10990;48.174;9.782;2023-01-15T13:19:31;93042.13;;;4.07;100.00
21658;BME280;10990;48.174;9.782;2023-01-15T13:22:04;93043.34;;;4.19;100.00
21658;BME280;10990;48.174;9.782;2023-01-15T13:24:53;93049.16;;;4.06;100.00
21658;BME280;10990;48.174;9.782;2023-01-15T13:27:44;93037.53;;;4.09;100.00